Atlantida Azul — CSYG2 — position and weather

sailwx.info

Track history (hours):
 
Tides and Currents Weather Stations Pressure Air Temp Water Temp Dewpoint Dewpoint Depression Visibility Wind Speed Wind Dir Waves Ship Positions

Atlantida Azul

Last reported at 2016-Aug-24 16:31 UTC. Time now 2016-Aug-24 21:25 UTC.
Position N 37°56' W 008°51'.

Length 16 m.

Type: Pilot. MMSI: 263672880.

Date/timePositionNaut miles runAvg speedWind from/ knotsBaromVisibWave heightAir tempDewpointWater temp
2016-Aug-24 16:31N 37°56' W 008°51'0 0.0
2016-Aug-24 12:19N 37°56' W 008°51'0 0.2
2016-Aug-24 10:33N 37°56' W 008°51'0 0.1
2016-Aug-24 09:32N 37°56' W 008°51'0 0.5
2016-Aug-24 08:33N 37°56' W 008°51'1 0.3
2016-Aug-24 06:13N 37°56' W 008°51'0 0.0
2016-Aug-23 23:13N 37°56' W 008°51'1 0.1
2016-Aug-23 10:33N 37°57' W 008°52'1 0.2
2016-Aug-23 04:33N 37°56' W 008°51'0 0.0
2016-Aug-23 03:33N 37°56' W 008°51'0 0.3
2016-Aug-23 02:31N 37°56' W 008°51'0 0.0
2016-Aug-22 18:33N 37°56' W 008°51'2 0.8
2016-Aug-22 15:32N 37°55' W 008°54'2 1.9
2016-Aug-22 14:33N 37°57' W 008°53'2 0.2
2016-Aug-22 04:31N 37°56' W 008°51'2 1.8
2016-Aug-22 03:32N 37°54' W 008°51'2 0.1
2016-Aug-21 08:31N 37°56' W 008°51'0 0.0
2016-Aug-21 07:10N 37°56' W 008°51'0 0.7
2016-Aug-21 06:32N 37°56' W 008°51'2 2.2
2016-Aug-21 05:33N 37°55' W 008°53'2 0.7
2016-Aug-21 02:33N 37°56' W 008°51'0 0.2
2016-Aug-21 00:20N 37°56' W 008°51'2 2.4
2016-Aug-20 23:33N 37°57' W 008°53'2 2.2
2016-Aug-20 22:33N 37°56' W 008°51'0 0.4
2016-Aug-20 21:33N 37°55' W 008°51'1 0.5
2016-Aug-20 20:32N 37°56' W 008°51'2 2.5
2016-Aug-20 19:33N 37°54' W 008°50'3 0.3
2016-Aug-20 09:20N 37°56' W 008°51'0 0.6
2016-Aug-20 08:32N 37°56' W 008°51'1 0.3
2016-Aug-20 06:33N 37°55' W 008°51'0 0.1
2016-Aug-19 23:33N 37°55' W 008°51'1 0.3
2016-Aug-19 18:08N 37°56' W 008°51'0 0.0
2016-Aug-19 01:32N 37°56' W 008°51'1 0.1
2016-Aug-18 13:33N 37°55' W 008°51'2 0.9
2016-Aug-18 11:20N 37°57' W 008°52'1 0.9
2016-Aug-18 10:33N 37°57' W 008°53'0 0.3
2016-Aug-18 09:33N 37°57' W 008°53'2 0.3
2016-Aug-18 04:17N 37°56' W 008°51'0 0.6
2016-Aug-18 03:32N 37°56' W 008°51'0 0.0
2016-Aug-18 02:32N 37°56' W 008°51'0 0.2
2016-Aug-18 00:23N 37°56' W 008°51'0 0.5
2016-Aug-17 23:33N 37°56' W 008°51'0 0.2
2016-Aug-17 21:13N 37°56' W 008°51'2 2.8
2016-Aug-17 20:32N 37°57' W 008°53'1 0.8
2016-Aug-17 19:33N 37°57' W 008°52'1 0.1
2016-Aug-17 10:10N 37°56' W 008°51'1 2.2
2016-Aug-17 09:32N 37°57' W 008°52'1 1.4
2016-Aug-17 08:32N 37°56' W 008°51'0 0.1
2016-Aug-17 07:04N 37°56' W 008°51'0 0.8
2016-Aug-17 06:33N 37°56' W 008°51'0 0.0
2016-Aug-16 22:32N 37°56' W 008°51'0 0.3
2016-Aug-16 21:29N 37°56' W 008°51'0 0.0
2016-Aug-16 20:31N 37°56' W 008°51'0 0.0
2016-Aug-16 19:03N 37°56' W 008°51'1 1.3
2016-Aug-16 18:28N 37°56' W 008°50'2 0.8
2016-Aug-16 16:32N 37°56' W 008°52'1 1.1
2016-Aug-16 15:33N 37°56' W 008°51'1 0.2
2016-Aug-16 10:34N 37°56' W 008°53'1 1.3
2016-Aug-16 09:31N 37°56' W 008°51'0 0.0
2016-Aug-16 06:33N 37°56' W 008°51'0 0.1
2016-Aug-16 00:09N 37°56' W 008°51'0 0.3
2016-Aug-15 23:33N 37°56' W 008°51'3 2.6
2016-Aug-15 22:33N 37°54' W 008°50'3 0.1
2016-Aug-15 01:33N 37°56' W 008°51'1 0.3
2016-Aug-14 21:33N 37°55' W 008°52'1 0.2
2016-Aug-14 16:33N 37°56' W 008°51'  
Track history (hours):
 
Tides and Currents Weather Stations Pressure Air Temp Water Temp Dewpoint Dewpoint Depression Visibility Wind Speed Wind Dir Waves Ship Positions

Atlantida Azul

Last reported at 2016-Aug-24 16:31 UTC. Time now 2016-Aug-24 21:25 UTC.
Position N 37°56' W 008°51'.

Length 16 m.

Type: Pilot. MMSI: 263672880.

Date/timePositionNaut miles runAvg speedWind from/ knotsBaromVisibWave heightAir tempDewpointWater temp
2016-Aug-24 16:31N 37°56' W 008°51'0 0.0
2016-Aug-24 12:19N 37°56' W 008°51'0 0.2
2016-Aug-24 10:33N 37°56' W 008°51'0 0.1
2016-Aug-24 09:32N 37°56' W 008°51'0 0.5
2016-Aug-24 08:33N 37°56' W 008°51'1 0.3
2016-Aug-24 06:13N 37°56' W 008°51'0 0.0
2016-Aug-23 23:13N 37°56' W 008°51'1 0.1
2016-Aug-23 10:33N 37°57' W 008°52'1 0.2
2016-Aug-23 04:33N 37°56' W 008°51'0 0.0
2016-Aug-23 03:33N 37°56' W 008°51'0 0.3
2016-Aug-23 02:31N 37°56' W 008°51'0 0.0
2016-Aug-22 18:33N 37°56' W 008°51'2 0.8
2016-Aug-22 15:32N 37°55' W 008°54'2 1.9
2016-Aug-22 14:33N 37°57' W 008°53'2 0.2
2016-Aug-22 04:31N 37°56' W 008°51'2 1.8
2016-Aug-22 03:32N 37°54' W 008°51'2 0.1
2016-Aug-21 08:31N 37°56' W 008°51'0 0.0
2016-Aug-21 07:10N 37°56' W 008°51'0 0.7
2016-Aug-21 06:32N 37°56' W 008°51'2 2.2
2016-Aug-21 05:33N 37°55' W 008°53'2 0.7
2016-Aug-21 02:33N 37°56' W 008°51'0 0.2
2016-Aug-21 00:20N 37°56' W 008°51'2 2.4
2016-Aug-20 23:33N 37°57' W 008°53'2 2.2
2016-Aug-20 22:33N 37°56' W 008°51'0 0.4
2016-Aug-20 21:33N 37°55' W 008°51'1 0.5
2016-Aug-20 20:32N 37°56' W 008°51'2 2.5
2016-Aug-20 19:33N 37°54' W 008°50'3 0.3
2016-Aug-20 09:20N 37°56' W 008°51'0 0.6
2016-Aug-20 08:32N 37°56' W 008°51'1 0.3
2016-Aug-20 06:33N 37°55' W 008°51'0 0.1
2016-Aug-19 23:33N 37°55' W 008°51'1 0.3
2016-Aug-19 18:08N 37°56' W 008°51'0 0.0
2016-Aug-19 01:32N 37°56' W 008°51'1 0.1
2016-Aug-18 13:33N 37°55' W 008°51'2 0.9
2016-Aug-18 11:20N 37°57' W 008°52'1 0.9
2016-Aug-18 10:33N 37°57' W 008°53'0 0.3
2016-Aug-18 09:33N 37°57' W 008°53'2 0.3
2016-Aug-18 04:17N 37°56' W 008°51'0 0.6
2016-Aug-18 03:32N 37°56' W 008°51'0 0.0
2016-Aug-18 02:32N 37°56' W 008°51'0 0.2
2016-Aug-18 00:23N 37°56' W 008°51'0 0.5
2016-Aug-17 23:33N 37°56' W 008°51'0 0.2
2016-Aug-17 21:13N 37°56' W 008°51'2 2.8
2016-Aug-17 20:32N 37°57' W 008°53'1 0.8
2016-Aug-17 19:33N 37°57' W 008°52'1 0.1
2016-Aug-17 10:10N 37°56' W 008°51'1 2.2
2016-Aug-17 09:32N 37°57' W 008°52'1 1.4
2016-Aug-17 08:32N 37°56' W 008°51'0 0.1
2016-Aug-17 07:04N 37°56' W 008°51'0 0.8
2016-Aug-17 06:33N 37°56' W 008°51'0 0.0
2016-Aug-16 22:32N 37°56' W 008°51'0 0.3
2016-Aug-16 21:29N 37°56' W 008°51'0 0.0
2016-Aug-16 20:31N 37°56' W 008°51'0 0.0
2016-Aug-16 19:03N 37°56' W 008°51'1 1.3
2016-Aug-16 18:28N 37°56' W 008°50'2 0.8
2016-Aug-16 16:32N 37°56' W 008°52'1 1.1
2016-Aug-16 15:33N 37°56' W 008°51'1 0.2
2016-Aug-16 10:34N 37°56' W 008°53'1 1.3
2016-Aug-16 09:31N 37°56' W 008°51'0 0.0
2016-Aug-16 06:33N 37°56' W 008°51'0 0.1
2016-Aug-16 00:09N 37°56' W 008°51'0 0.3
2016-Aug-15 23:33N 37°56' W 008°51'3 2.6
2016-Aug-15 22:33N 37°54' W 008°50'3 0.1
2016-Aug-15 01:33N 37°56' W 008°51'1 0.3
2016-Aug-14 21:33N 37°55' W 008°52'1 0.2
2016-Aug-14 16:33N 37°56' W 008°51'  

Dump ship's entire track history